sensor_id;sensor_type;location;lat;lon;timestamp;temperature;humidity
7894;DHT22;51343;51.396;6.656;2024-02-16T00:00:01;12.40;99.90
7894;DHT22;51343;51.396;6.656;2024-02-16T00:02:28;12.40;99.90
7894;DHT22;51343;51.396;6.656;2024-02-16T00:04:55;12.40;99.90
7894;DHT22;51343;51.396;6.656;2024-02-16T00:07:23;12.40;99.90
7894;DHT22;51343;51.396;6.656;2024-02-16T00:09:51;12.40;1.00
7894;DHT22;51343;51.396;6.656;2024-02-16T00:12:18;12.40;99.90
7894;DHT22;51343;51.396;6.656;2024-02-16T00:14:46;12.40;99.90
7894;DHT22;51343;51.396;6.656;2024-02-16T00:17:13;12.40;99.90
7894;DHT22;51343;51.396;6.656;2024-02-16T00:19:40;12.40;99.90
7894;DHT22;51343;51.396;6.656;2024-02-16T00:22:07;12.40;99.90
7894;DHT22;51343;51.396;6.656;2024-02-16T00:24:34;12.40;99.90
7894;DHT22;51343;51.396;6.656;2024-02-16T00:27:03;12.40;99.90
7894;DHT22;51343;51.396;6.656;2024-02-16T00:29:35;12.40;99.90
7894;DHT22;51343;51.396;6.656;2024-02-16T00:32:12;12.40;99.90
7894;DHT22;51343;51.396;6.656;2024-02-16T00:37:15;12.50;99.90
7894;DHT22;51343;51.396;6.656;2024-02-16T00:39:45;12.50;99.90
7894;DHT22;51343;51.396;6.656;2024-02-16T00:48:10;12.30;99.90
7894;DHT22;51343;51.396;6.656;2024-02-16T00:53:18;12.30;99.90
7894;DHT22;51343;51.396;6.656;2024-02-16T00:56:11;12.30;99.90
7894;DHT22;51343;51.396;6.656;2024-02-16T00:58:39;12.20;99.90
7894;DHT22;51343;51.396;6.656;2024-02-16T01:12:09;12.30;99.90
7894;DHT22;51343;51.396;6.656;2024-02-16T02:40:53;12.60;99.90
7894;DHT22;51343;51.396;6.656;2024-02-16T02:43:20;12.60;99.90
7894;DHT22;51343;51.396;6.656;2024-02-16T02:53:34;12.60;99.90
7894;DHT22;51343;51.396;6.656;2024-02-16T02:59:14;12.60;99.90
7894;DHT22;51343;51.396;6.656;2024-02-16T03:02:10;12.60;99.90
7894;DHT22;51343;51.396;6.656;2024-02-16T03:07:26;12.60;99.90
7894;DHT22;51343;51.396;6.656;2024-02-16T03:10:07;12.60;99.90
7894;DHT22;51343;51.396;6.656;2024-02-16T03:30:59;12.60;99.90
7894;DHT22;51343;51.396;6.656;2024-02-16T03:36:02;12.60;99.90
7894;DHT22;51343;51.396;6.656;2024-02-16T03:52:09;12.60;99.90
7894;DHT22;51343;51.396;6.656;2024-02-16T03:54:36;12.70;99.90
7894;DHT22;51343;51.396;6.656;2024-02-16T05:16:23;12.20;99.90
7894;DHT22;51343;51.396;6.656;2024-02-16T05:18:51;12.20;99.90
7894;DHT22;51343;51.396;6.656;2024-02-16T05:44:46;12.00;1.00
7894;DHT22;51343;51.396;6.656;2024-02-16T05:47:16;12.00;1.00
7894;DHT22;51343;51.396;6.656;2024-02-16T05:52:31;12.00;16.50
7894;DHT22;51343;51.396;6.656;2024-02-16T06:08:37;12.10;99.90
7894;DHT22;51343;51.396;6.656;2024-02-16T06:13:40;12.20;99.90
7894;DHT22;51343;51.396;6.656;2024-02-16T06:16:11;12.20;93.20
7894;DHT22;51343;51.396;6.656;2024-02-16T06:18:59;12.20;99.90
7894;DHT22;51343;51.396;6.656;2024-02-16T07:01:06;12.20;99.90
7894;DHT22;51343;51.396;6.656;2024-02-16T07:06:45;12.30;99.90
7894;DHT22;51343;51.396;6.656;2024-02-16T07:09:34;12.30;3.30
7894;DHT22;51343;51.396;6.656;2024-02-16T07:15:06;12.40;1.00
7894;DHT22;51343;51.396;6.656;2024-02-16T07:25:57;12.70;99.90
7894;DHT22;51343;51.396;6.656;2024-02-16T07:28:34;12.70;99.90
7894;DHT22;51343;51.396;6.656;2024-02-16T07:31:16;12.70;99.90
7894;DHT22;51343;51.396;6.656;2024-02-16T07:33:55;12.80;99.90
7894;DHT22;51343;51.396;6.656;2024-02-16T07:36:24;12.80;99.90
7894;DHT22;51343;51.396;6.656;2024-02-16T07:39:00;12.80;99.90
7894;DHT22;51343;51.396;6.656;2024-02-16T07:44:31;13.00;1.00
7894;DHT22;51343;51.396;6.656;2024-02-16T07:47:00;13.00;1.00
7894;DHT22;51343;51.396;6.656;2024-02-16T07:49:27;13.10;1.00
7894;DHT22;51343;51.396;6.656;2024-02-16T07:51:54;13.10;1.00
7894;DHT22;51343;51.396;6.656;2024-02-16T07:54:32;13.10;1.00
7894;DHT22;51343;51.396;6.656;2024-02-16T07:56:59;13.20;1.00
7894;DHT22;51343;51.396;6.656;2024-02-16T07:59:29;13.20;1.00
7894;DHT22;51343;51.396;6.656;2024-02-16T08:18:58;13.30;1.00
7894;DHT22;51343;51.396;6.656;2024-02-16T08:21:25;13.40;1.00
7894;DHT22;51343;51.396;6.656;2024-02-16T08:23:52;13.40;1.00
7894;DHT22;51343;51.396;6.656;2024-02-16T08:26:34;13.40;1.00
7894;DHT22;51343;51.396;6.656;2024-02-16T08:29:00;13.50;1.00
7894;DHT22;51343;51.396;6.656;2024-02-16T08:31:27;13.50;1.00
7894;DHT22;51343;51.396;6.656;2024-02-16T08:33:54;13.60;1.00
7894;DHT22;51343;51.396;6.656;2024-02-16T08:39:10;13.60;99.90
7894;DHT22;51343;51.396;6.656;2024-02-16T08:41:41;13.60;99.90
7894;DHT22;51343;51.396;6.656;2024-02-16T08:44:09;13.70;99.90
7894;DHT22;51343;51.396;6.656;2024-02-16T08:46:38;13.70;99.90
7894;DHT22;51343;51.396;6.656;2024-02-16T08:49:09;13.70;99.90
7894;DHT22;51343;51.396;6.656;2024-02-16T08:51:37;13.70;99.90
7894;DHT22;51343;51.396;6.656;2024-02-16T08:56:44;13.80;99.90
7894;DHT22;51343;51.396;6.656;2024-02-16T08:59:15;13.80;99.90
7894;DHT22;51343;51.396;6.656;2024-02-16T09:01:43;13.90;99.90
7894;DHT22;51343;51.396;6.656;2024-02-16T09:04:17;13.90;99.90
7894;DHT22;51343;51.396;6.656;2024-02-16T09:06:52;13.90;99.90
7894;DHT22;51343;51.396;6.656;2024-02-16T09:09:23;13.90;99.90
7894;DHT22;51343;51.396;6.656;2024-02-16T09:11:52;13.90;99.90
7894;DHT22;51343;51.396;6.656;2024-02-16T09:14:22;14.00;99.90
7894;DHT22;51343;51.396;6.656;2024-02-16T09:16:55;14.10;99.90
7894;DHT22;51343;51.396;6.656;2024-02-16T09:19:23;14.10;99.90
7894;DHT22;51343;51.396;6.656;2024-02-16T09:21:50;14.10;1.00
7894;DHT22;51343;51.396;6.656;2024-02-16T09:24:20;14.10;99.90
7894;DHT22;51343;51.396;6.656;2024-02-16T09:26:48;14.20;99.90
7894;DHT22;51343;51.396;6.656;2024-02-16T09:29:18;14.20;99.90
7894;DHT22;51343;51.396;6.656;2024-02-16T09:31:48;14.20;1.00
7894;DHT22;51343;51.396;6.656;2024-02-16T09:34:16;14.10;1.00
7894;DHT22;51343;51.396;6.656;2024-02-16T09:36:44;14.10;1.00
7894;DHT22;51343;51.396;6.656;2024-02-16T09:39:17;14.00;1.00
7894;DHT22;51343;51.396;6.656;2024-02-16T09:44:22;14.10;1.00
7894;DHT22;51343;51.396;6.656;2024-02-16T09:46:53;14.30;1.00
7894;DHT22;51343;51.396;6.656;2024-02-16T09:49:22;14.30;1.00
7894;DHT22;51343;51.396;6.656;2024-02-16T09:54:26;14.50;99.90
7894;DHT22;51343;51.396;6.656;2024-02-16T10:02:07;14.60;99.90
7894;DHT22;51343;51.396;6.656;2024-02-16T10:04:35;14.60;99.90
7894;DHT22;51343;51.396;6.656;2024-02-16T10:07:03;14.60;99.90
7894;DHT22;51343;51.396;6.656;2024-02-16T10:09:31;14.70;99.90
7894;DHT22;51343;51.396;6.656;2024-02-16T10:17:20;14.60;99.90
7894;DHT22;51343;51.396;6.656;2024-02-16T10:19:54;14.60;99.90
7894;DHT22;51343;51.396;6.656;2024-02-16T10:22:24;14.70;99.90
7894;DHT22;51343;51.396;6.656;2024-02-16T10:24:54;14.80;99.90
7894;DHT22;51343;51.396;6.656;2024-02-16T10:27:24;14.90;99.90
7894;DHT22;51343;51.396;6.656;2024-02-16T10:29:55;15.00;99.90
7894;DHT22;51343;51.396;6.656;2024-02-16T10:32:27;15.00;99.90
7894;DHT22;51343;51.396;6.656;2024-02-16T10:34:58;15.00;99.90
7894;DHT22;51343;51.396;6.656;2024-02-16T10:37:26;15.00;99.90
7894;DHT22;51343;51.396;6.656;2024-02-16T10:39:53;15.10;99.90
7894;DHT22;51343;51.396;6.656;2024-02-16T10:42:23;15.10;99.90
7894;DHT22;51343;51.396;6.656;2024-02-16T10:45:03;15.20;99.90
7894;DHT22;51343;51.396;6.656;2024-02-16T10:47:32;15.10;99.90
7894;DHT22;51343;51.396;6.656;2024-02-16T10:50:00;15.10;99.90
7894;DHT22;51343;51.396;6.656;2024-02-16T10:52:34;15.10;99.90
7894;DHT22;51343;51.396;6.656;2024-02-16T10:55:12;15.10;99.90
7894;DHT22;51343;51.396;6.656;2024-02-16T10:57:43;15.10;99.90
7894;DHT22;51343;51.396;6.656;2024-02-16T11:00:11;15.10;99.90
7894;DHT22;51343;51.396;6.656;2024-02-16T11:02:54;15.00;99.90
7894;DHT22;51343;51.396;6.656;2024-02-16T11:05:33;15.10;99.90
7894;DHT22;51343;51.396;6.656;2024-02-16T11:08:11;15.00;99.90
7894;DHT22;51343;51.396;6.656;2024-02-16T11:10:53;15.00;99.90
7894;DHT22;51343;51.396;6.656;2024-02-16T11:13:35;14.90;99.90
7894;DHT22;51343;51.396;6.656;2024-02-16T11:16:06;14.90;99.90
7894;DHT22;51343;51.396;6.656;2024-02-16T11:18:42;15.00;99.90
7894;DHT22;51343;51.396;6.656;2024-02-16T11:21:15;14.90;99.90
7894;DHT22;51343;51.396;6.656;2024-02-16T11:23:49;14.80;99.90
7894;DHT22;51343;51.396;6.656;2024-02-16T11:26:19;14.80;99.90
7894;DHT22;51343;51.396;6.656;2024-02-16T11:34:24;14.80;1.00
7894;DHT22;51343;51.396;6.656;2024-02-16T11:36:57;14.70;1.00
7894;DHT22;51343;51.396;6.656;2024-02-16T11:39:24;14.80;1.00
7894;DHT22;51343;51.396;6.656;2024-02-16T11:44:55;14.80;1.00
7894;DHT22;51343;51.396;6.656;2024-02-16T11:47:33;14.80;1.00
7894;DHT22;51343;51.396;6.656;2024-02-16T11:50:04;14.80;1.00
7894;DHT22;51343;51.396;6.656;2024-02-16T11:52:36;14.70;1.00
7894;DHT22;51343;51.396;6.656;2024-02-16T11:55:07;14.70;1.00
7894;DHT22;51343;51.396;6.656;2024-02-16T11:57:39;14.80;1.00
7894;DHT22;51343;51.396;6.656;2024-02-16T12:00:08;14.80;1.00
7894;DHT22;51343;51.396;6.656;2024-02-16T12:02:40;14.70;1.00
7894;DHT22;51343;51.396;6.656;2024-02-16T12:05:14;14.70;1.00
7894;DHT22;51343;51.396;6.656;2024-02-16T12:07:42;14.60;46.80
7894;DHT22;51343;51.396;6.656;2024-02-16T12:10:15;14.60;99.90
7894;DHT22;51343;51.396;6.656;2024-02-16T12:12:47;14.60;99.90
7894;DHT22;51343;51.396;6.656;2024-02-16T12:15:24;14.60;99.90
7894;DHT22;51343;51.396;6.656;2024-02-16T12:18:00;14.60;99.90
7894;DHT22;51343;51.396;6.656;2024-02-16T12:20:37;14.60;99.90
7894;DHT22;51343;51.396;6.656;2024-02-16T12:23:15;14.50;99.90
7894;DHT22;51343;51.396;6.656;2024-02-16T12:25:42;14.50;1.00
7894;DHT22;51343;51.396;6.656;2024-02-16T12:36:02;14.50;1.00
7894;DHT22;51343;51.396;6.656;2024-02-16T12:38:29;14.50;1.00
7894;DHT22;51343;51.396;6.656;2024-02-16T12:43:33;14.40;58.90
7894;DHT22;51343;51.396;6.656;2024-02-16T12:46:02;14.40;98.00
7894;DHT22;51343;51.396;6.656;2024-02-16T12:48:30;14.50;97.80
7894;DHT22;51343;51.396;6.656;2024-02-16T12:50:57;14.40;99.90
7894;DHT22;51343;51.396;6.656;2024-02-16T13:01:43;14.30;1.00
7894;DHT22;51343;51.396;6.656;2024-02-16T13:04:12;14.30;1.00
7894;DHT22;51343;51.396;6.656;2024-02-16T13:06:46;14.30;1.00
7894;DHT22;51343;51.396;6.656;2024-02-16T13:09:14;14.30;1.00
7894;DHT22;51343;51.396;6.656;2024-02-16T13:11:44;14.20;99.90
7894;DHT22;51343;51.396;6.656;2024-02-16T13:19:43;14.20;1.00
7894;DHT22;51343;51.396;6.656;2024-02-16T13:22:10;14.20;1.00
7894;DHT22;51343;51.396;6.656;2024-02-16T13:24:36;14.20;1.00
7894;DHT22;51343;51.396;6.656;2024-02-16T13:29:39;14.10;99.90
7894;DHT22;51343;51.396;6.656;2024-02-16T13:32:06;14.10;1.00
7894;DHT22;51343;51.396;6.656;2024-02-16T13:34:36;14.10;99.90
7894;DHT22;51343;51.396;6.656;2024-02-16T13:37:13;14.00;1.00
7894;DHT22;51343;51.396;6.656;2024-02-16T13:39:43;13.90;1.00
7894;DHT22;51343;51.396;6.656;2024-02-16T13:42:10;13.90;1.00
7894;DHT22;51343;51.396;6.656;2024-02-16T13:44:38;13.80;1.00
7894;DHT22;51343;51.396;6.656;2024-02-16T13:47:09;13.80;1.00
7894;DHT22;51343;51.396;6.656;2024-02-16T13:49:38;13.70;1.00
7894;DHT22;51343;51.396;6.656;2024-02-16T13:52:11;13.70;99.90
7894;DHT22;51343;51.396;6.656;2024-02-16T13:54:55;13.60;8.90
7894;DHT22;51343;51.396;6.656;2024-02-16T13:57:28;13.60;1.00
7894;DHT22;51343;51.396;6.656;2024-02-16T14:00:04;13.40;1.00
7894;DHT22;51343;51.396;6.656;2024-02-16T14:02:34;13.40;1.00
7894;DHT22;51343;51.396;6.656;2024-02-16T14:05:03;13.30;1.00
7894;DHT22;51343;51.396;6.656;2024-02-16T14:07:30;13.20;1.00
7894;DHT22;51343;51.396;6.656;2024-02-16T14:10:03;13.20;1.00
7894;DHT22;51343;51.396;6.656;2024-02-16T14:12:35;13.20;37.40
7894;DHT22;51343;51.396;6.656;2024-02-16T14:15:03;13.10;88.90
7894;DHT22;51343;51.396;6.656;2024-02-16T14:17:30;13.10;99.90
7894;DHT22;51343;51.396;6.656;2024-02-16T14:19:59;13.10;99.90
7894;DHT22;51343;51.396;6.656;2024-02-16T14:22:26;13.00;99.90
7894;DHT22;51343;51.396;6.656;2024-02-16T14:25:03;13.00;99.90
7894;DHT22;51343;51.396;6.656;2024-02-16T14:27:35;13.00;99.90
7894;DHT22;51343;51.396;6.656;2024-02-16T14:30:04;13.00;99.90
7894;DHT22;51343;51.396;6.656;2024-02-16T14:32:36;12.90;99.90
7894;DHT22;51343;51.396;6.656;2024-02-16T14:35:04;12.90;99.90
7894;DHT22;51343;51.396;6.656;2024-02-16T14:37:36;12.80;99.90
7894;DHT22;51343;51.396;6.656;2024-02-16T14:40:06;12.80;99.90
7894;DHT22;51343;51.396;6.656;2024-02-16T14:42:44;12.80;99.90
7894;DHT22;51343;51.396;6.656;2024-02-16T14:45:12;12.80;99.90
7894;DHT22;51343;51.396;6.656;2024-02-16T14:47:46;12.70;99.90
7894;DHT22;51343;51.396;6.656;2024-02-16T14:50:16;12.70;99.90
7894;DHT22;51343;51.396;6.656;2024-02-16T14:52:44;12.70;99.90
7894;DHT22;51343;51.396;6.656;2024-02-16T14:55:14;12.70;99.90
7894;DHT22;51343;51.396;6.656;2024-02-16T14:57:48;12.70;99.90
7894;DHT22;51343;51.396;6.656;2024-02-16T15:00:16;12.70;99.90
7894;DHT22;51343;51.396;6.656;2024-02-16T15:02:44;12.70;99.90
7894;DHT22;51343;51.396;6.656;2024-02-16T15:05:14;12.70;99.90
7894;DHT22;51343;51.396;6.656;2024-02-16T15:07:46;12.70;99.90
7894;DHT22;51343;51.396;6.656;2024-02-16T15:10:15;12.70;99.90
7894;DHT22;51343;51.396;6.656;2024-02-16T15:12:42;12.70;99.90
7894;DHT22;51343;51.396;6.656;2024-02-16T15:15:12;12.60;99.90
7894;DHT22;51343;51.396;6.656;2024-02-16T15:17:41;12.60;99.90
7894;DHT22;51343;51.396;6.656;2024-02-16T15:20:16;12.60;99.90
7894;DHT22;51343;51.396;6.656;2024-02-16T15:22:44;12.60;99.90
7894;DHT22;51343;51.396;6.656;2024-02-16T15:25:23;12.60;99.90
7894;DHT22;51343;51.396;6.656;2024-02-16T15:27:51;12.50;99.90
7894;DHT22;51343;51.396;6.656;2024-02-16T15:30:23;12.50;99.90
7894;DHT22;51343;51.396;6.656;2024-02-16T15:32:54;12.50;99.90
7894;DHT22;51343;51.396;6.656;2024-02-16T15:35:27;12.40;99.90
7894;DHT22;51343;51.396;6.656;2024-02-16T15:37:55;12.40;99.90
7894;DHT22;51343;51.396;6.656;2024-02-16T15:40:24;12.40;99.90
7894;DHT22;51343;51.396;6.656;2024-02-16T15:43:07;12.30;99.90
7894;DHT22;51343;51.396;6.656;2024-02-16T15:45:41;12.30;99.90
7894;DHT22;51343;51.396;6.656;2024-02-16T15:48:24;12.30;99.90
7894;DHT22;51343;51.396;6.656;2024-02-16T15:50:57;12.30;99.90
7894;DHT22;51343;51.396;6.656;2024-02-16T15:53:25;12.30;99.90
7894;DHT22;51343;51.396;6.656;2024-02-16T15:55:53;12.20;99.90
7894;DHT22;51343;51.396;6.656;2024-02-16T15:58:32;12.10;99.90
7894;DHT22;51343;51.396;6.656;2024-02-16T16:01:02;12.10;99.90
7894;DHT22;51343;51.396;6.656;2024-02-16T16:03:38;12.10;99.90
7894;DHT22;51343;51.396;6.656;2024-02-16T16:06:20;12.10;99.90
7894;DHT22;51343;51.396;6.656;2024-02-16T16:08:47;12.00;99.90
7894;DHT22;51343;51.396;6.656;2024-02-16T16:11:20;12.00;99.90
7894;DHT22;51343;51.396;6.656;2024-02-16T16:13:54;12.00;99.90
7894;DHT22;51343;51.396;6.656;2024-02-16T16:16:23;11.90;99.90
7894;DHT22;51343;51.396;6.656;2024-02-16T16:18:49;11.90;99.90
7894;DHT22;51343;51.396;6.656;2024-02-16T16:21:18;11.90;99.90
7894;DHT22;51343;51.396;6.656;2024-02-16T16:23:47;11.90;99.90
7894;DHT22;51343;51.396;6.656;2024-02-16T16:26:18;11.90;99.90
7894;DHT22;51343;51.396;6.656;2024-02-16T16:28:49;11.90;99.90
7894;DHT22;51343;51.396;6.656;2024-02-16T16:31:18;11.70;99.90
7894;DHT22;51343;51.396;6.656;2024-02-16T16:33:50;11.70;99.90
7894;DHT22;51343;51.396;6.656;2024-02-16T16:36:23;11.70;99.90
7894;DHT22;51343;51.396;6.656;2024-02-16T16:38:54;11.70;99.90
7894;DHT22;51343;51.396;6.656;2024-02-16T16:41:32;11.70;99.90
7894;DHT22;51343;51.396;6.656;2024-02-16T16:44:25;11.60;99.90
7894;DHT22;51343;51.396;6.656;2024-02-16T16:47:01;11.60;99.90
7894;DHT22;51343;51.396;6.656;2024-02-16T16:49:34;11.60;99.90
7894;DHT22;51343;51.396;6.656;2024-02-16T16:52:19;11.60;99.90
7894;DHT22;51343;51.396;6.656;2024-02-16T16:54:46;11.50;99.90
7894;DHT22;51343;51.396;6.656;2024-02-16T16:57:14;11.50;99.90
7894;DHT22;51343;51.396;6.656;2024-02-16T17:00:16;11.60;99.90
7894;DHT22;51343;51.396;6.656;2024-02-16T17:03:05;11.60;99.90
7894;DHT22;51343;51.396;6.656;2024-02-16T17:08:28;11.50;99.90
7894;DHT22;51343;51.396;6.656;2024-02-16T17:11:17;11.50;99.90
7894;DHT22;51343;51.396;6.656;2024-02-16T17:13:44;11.50;99.90
7894;DHT22;51343;51.396;6.656;2024-02-16T17:16:11;11.50;99.90
7894;DHT22;51343;51.396;6.656;2024-02-16T17:18:54;11.50;99.90
7894;DHT22;51343;51.396;6.656;2024-02-16T17:24:06;11.40;99.90
7894;DHT22;51343;51.396;6.656;2024-02-16T17:26:34;11.40;99.90
7894;DHT22;51343;51.396;6.656;2024-02-16T17:29:01;11.40;99.90
7894;DHT22;51343;51.396;6.656;2024-02-16T17:31:31;11.40;99.90
7894;DHT22;51343;51.396;6.656;2024-02-16T17:34:12;11.40;99.90
7894;DHT22;51343;51.396;6.656;2024-02-16T17:36:59;11.40;99.90
7894;DHT22;51343;51.396;6.656;2024-02-16T17:39:33;11.40;99.90
7894;DHT22;51343;51.396;6.656;2024-02-16T17:42:00;11.40;99.90
7894;DHT22;51343;51.396;6.656;2024-02-16T17:44:27;11.40;99.90
7894;DHT22;51343;51.396;6.656;2024-02-16T17:46:55;11.40;99.90
7894;DHT22;51343;51.396;6.656;2024-02-16T17:49:22;11.40;99.90
7894;DHT22;51343;51.396;6.656;2024-02-16T17:51:49;11.40;99.90
7894;DHT22;51343;51.396;6.656;2024-02-16T17:54:16;11.40;99.90
7894;DHT22;51343;51.396;6.656;2024-02-16T17:56:45;11.40;99.90
7894;DHT22;51343;51.396;6.656;2024-02-16T17:59:15;11.40;99.90
7894;DHT22;51343;51.396;6.656;2024-02-16T18:01:42;11.40;99.90
7894;DHT22;51343;51.396;6.656;2024-02-16T18:04:10;11.30;99.90
7894;DHT22;51343;51.396;6.656;2024-02-16T18:06:37;11.40;99.90
7894;DHT22;51343;51.396;6.656;2024-02-16T18:09:07;11.40;99.90
7894;DHT22;51343;51.396;6.656;2024-02-16T18:11:35;11.40;99.90
7894;DHT22;51343;51.396;6.656;2024-02-16T18:14:06;11.40;99.90
7894;DHT22;51343;51.396;6.656;2024-02-16T18:16:34;11.40;99.90
7894;DHT22;51343;51.396;6.656;2024-02-16T18:19:02;11.40;99.90
7894;DHT22;51343;51.396;6.656;2024-02-16T18:21:29;11.40;99.90
7894;DHT22;51343;51.396;6.656;2024-02-16T18:23:56;11.40;99.90
7894;DHT22;51343;51.396;6.656;2024-02-16T18:26:25;11.40;59.00
7894;DHT22;51343;51.396;6.656;2024-02-16T18:28:53;11.30;38.50
7894;DHT22;51343;51.396;6.656;2024-02-16T18:31:34;11.30;1.00
7894;DHT22;51343;51.396;6.656;2024-02-16T18:34:02;11.30;1.00
7894;DHT22;51343;51.396;6.656;2024-02-16T18:36:31;11.30;1.00
7894;DHT22;51343;51.396;6.656;2024-02-16T18:38:58;11.20;1.00
7894;DHT22;51343;51.396;6.656;2024-02-16T18:41:27;11.10;1.00
7894;DHT22;51343;51.396;6.656;2024-02-16T18:43:54;11.10;1.00
7894;DHT22;51343;51.396;6.656;2024-02-16T18:46:22;11.10;1.00
7894;DHT22;51343;51.396;6.656;2024-02-16T18:48:51;11.00;6.90
7894;DHT22;51343;51.396;6.656;2024-02-16T18:51:18;11.00;81.80
7894;DHT22;51343;51.396;6.656;2024-02-16T18:53:48;11.00;99.90
7894;DHT22;51343;51.396;6.656;2024-02-16T18:56:18;11.00;99.90
7894;DHT22;51343;51.396;6.656;2024-02-16T18:58:51;11.00;99.90
7894;DHT22;51343;51.396;6.656;2024-02-16T19:01:18;10.90;99.90
7894;DHT22;51343;51.396;6.656;2024-02-16T19:03:46;10.90;99.90
7894;DHT22;51343;51.396;6.656;2024-02-16T19:06:16;10.90;99.90
7894;DHT22;51343;51.396;6.656;2024-02-16T19:08:45;10.90;99.90
7894;DHT22;51343;51.396;6.656;2024-02-16T19:11:13;10.90;99.90
7894;DHT22;51343;51.396;6.656;2024-02-16T19:13:41;10.90;99.90
7894;DHT22;51343;51.396;6.656;2024-02-16T19:16:11;10.90;99.90
7894;DHT22;51343;51.396;6.656;2024-02-16T19:18:42;10.90;99.90
7894;DHT22;51343;51.396;6.656;2024-02-16T19:21:11;10.90;99.90
7894;DHT22;51343;51.396;6.656;2024-02-16T19:23:42;10.90;99.90
7894;DHT22;51343;51.396;6.656;2024-02-16T19:26:19;10.90;99.90
7894;DHT22;51343;51.396;6.656;2024-02-16T19:28:52;10.80;99.90
7894;DHT22;51343;51.396;6.656;2024-02-16T19:31:22;10.80;99.90
7894;DHT22;51343;51.396;6.656;2024-02-16T19:33:49;10.80;99.90
7894;DHT22;51343;51.396;6.656;2024-02-16T19:36:16;10.70;99.90
7894;DHT22;51343;51.396;6.656;2024-02-16T19:51:44;10.50;99.90
7894;DHT22;51343;51.396;6.656;2024-02-16T19:54:11;10.50;99.90
7894;DHT22;51343;51.396;6.656;2024-02-16T19:56:39;10.50;99.90
7894;DHT22;51343;51.396;6.656;2024-02-16T19:59:07;10.50;99.90
7894;DHT22;51343;51.396;6.656;2024-02-16T20:01:47;10.60;99.90
7894;DHT22;51343;51.396;6.656;2024-02-16T20:04:18;10.60;99.90
7894;DHT22;51343;51.396;6.656;2024-02-16T20:06:49;10.60;99.90
7894;DHT22;51343;51.396;6.656;2024-02-16T20:09:22;10.60;99.90
7894;DHT22;51343;51.396;6.656;2024-02-16T20:11:55;10.60;99.90
7894;DHT22;51343;51.396;6.656;2024-02-16T20:14:23;10.60;99.90
7894;DHT22;51343;51.396;6.656;2024-02-16T20:16:52;10.60;99.90
7894;DHT22;51343;51.396;6.656;2024-02-16T20:19:23;10.60;99.90
7894;DHT22;51343;51.396;6.656;2024-02-16T20:22:04;10.60;99.90
7894;DHT22;51343;51.396;6.656;2024-02-16T20:24:34;10.50;99.90
7894;DHT22;51343;51.396;6.656;2024-02-16T20:27:04;10.50;99.90
7894;DHT22;51343;51.396;6.656;2024-02-16T20:29:35;10.50;99.90
7894;DHT22;51343;51.396;6.656;2024-02-16T20:32:04;10.40;99.90
7894;DHT22;51343;51.396;6.656;2024-02-16T20:34:31;10.40;99.90
7894;DHT22;51343;51.396;6.656;2024-02-16T20:36:59;10.30;99.90
7894;DHT22;51343;51.396;6.656;2024-02-16T20:39:36;10.30;99.90
7894;DHT22;51343;51.396;6.656;2024-02-16T20:42:04;10.30;99.90
7894;DHT22;51343;51.396;6.656;2024-02-16T20:44:33;10.20;99.90
7894;DHT22;51343;51.396;6.656;2024-02-16T20:47:02;10.30;99.90
7894;DHT22;51343;51.396;6.656;2024-02-16T20:49:34;10.30;99.90
7894;DHT22;51343;51.396;6.656;2024-02-16T20:52:03;10.30;99.90
7894;DHT22;51343;51.396;6.656;2024-02-16T20:54:39;10.30;99.90
7894;DHT22;51343;51.396;6.656;2024-02-16T20:57:07;10.20;99.90
7894;DHT22;51343;51.396;6.656;2024-02-16T20:59:41;10.20;99.90
7894;DHT22;51343;51.396;6.656;2024-02-16T21:02:11;10.20;99.90
7894;DHT22;51343;51.396;6.656;2024-02-16T21:04:38;10.20;99.90
7894;DHT22;51343;51.396;6.656;2024-02-16T21:07:06;10.20;99.90
7894;DHT22;51343;51.396;6.656;2024-02-16T21:09:34;10.20;99.90
7894;DHT22;51343;51.396;6.656;2024-02-16T21:12:07;10.20;99.90
7894;DHT22;51343;51.396;6.656;2024-02-16T21:14:37;10.30;99.90
7894;DHT22;51343;51.396;6.656;2024-02-16T21:17:08;10.30;99.90
7894;DHT22;51343;51.396;6.656;2024-02-16T21:19:36;10.30;99.90
7894;DHT22;51343;51.396;6.656;2024-02-16T21:22:03;10.30;99.90
7894;DHT22;51343;51.396;6.656;2024-02-16T21:24:31;10.20;99.90
7894;DHT22;51343;51.396;6.656;2024-02-16T21:26:58;10.20;99.90
7894;DHT22;51343;51.396;6.656;2024-02-16T22:29:06;9.60;16.30
7894;DHT22;51343;51.396;6.656;2024-02-16T22:31:33;9.60;23.40
7894;DHT22;51343;51.396;6.656;2024-02-16T22:34:00;9.50;40.60
7894;DHT22;51343;51.396;6.656;2024-02-16T22:36:28;9.50;35.40
7894;DHT22;51343;51.396;6.656;2024-02-16T22:38:56;9.50;42.40
7894;DHT22;51343;51.396;6.656;2024-02-16T22:41:23;9.50;70.40
7894;DHT22;51343;51.396;6.656;2024-02-16T23:04:39;9.10;90.60
7894;DHT22;51343;51.396;6.656;2024-02-16T23:07:08;9.00;97.00
7894;DHT22;51343;51.396;6.656;2024-02-16T23:09:36;9.00;99.90
7894;DHT22;51343;51.396;6.656;2024-02-16T23:12:03;9.00;99.90
7894;DHT22;51343;51.396;6.656;2024-02-16T23:14:31;8.90;99.90
7894;DHT22;51343;51.396;6.656;2024-02-16T23:16:58;8.90;99.90
7894;DHT22;51343;51.396;6.656;2024-02-16T23:19:25;8.80;99.90
7894;DHT22;51343;51.396;6.656;2024-02-16T23:21:53;8.80;99.90
7894;DHT22;51343;51.396;6.656;2024-02-16T23:24:20;8.80;99.90
7894;DHT22;51343;51.396;6.656;2024-02-16T23:26:48;8.70;99.90
7894;DHT22;51343;51.396;6.656;2024-02-16T23:29:18;8.70;99.90
7894;DHT22;51343;51.396;6.656;2024-02-16T23:31:45;8.70;99.90
7894;DHT22;51343;51.396;6.656;2024-02-16T23:34:13;8.60;99.90
7894;DHT22;51343;51.396;6.656;2024-02-16T23:36:44;8.60;99.90
7894;DHT22;51343;51.396;6.656;2024-02-16T23:39:15;8.60;99.90
7894;DHT22;51343;51.396;6.656;2024-02-16T23:41:45;8.60;99.90
7894;DHT22;51343;51.396;6.656;2024-02-16T23:44:12;8.50;99.90
7894;DHT22;51343;51.396;6.656;2024-02-16T23:46:41;8.60;99.90
7894;DHT22;51343;51.396;6.656;2024-02-16T23:49:08;8.60;99.90
7894;DHT22;51343;51.396;6.656;2024-02-16T23:51:35;8.60;99.90
7894;DHT22;51343;51.396;6.656;2024-02-16T23:54:01;8.70;99.90
7894;DHT22;51343;51.396;6.656;2024-02-16T23:56:31;8.80;99.90
7894;DHT22;51343;51.396;6.656;2024-02-16T23:58:58;8.90;99.90
